Weather at Wyatt Ranch Airport

Public forecast

Using degrees Fahrenheit for public forecast. Weather courtesy of forecast.io.

Closest aviation weather report (METAR) to Wyatt Ranch Airport

Closest report is Sonora Municipal Airport, 22.0 nm (40.7 km) W. Retrieved 2022/05/20 07:35 UTC (6 minutes ago):

KSOA 200735Z AUTO 17011G18KT 10SM CLR 27/19 A2968 RMK AO2

Closest aviation forecast (TAF) to Wyatt Ranch Airport

Closest forecast is Sonora Municipal Airport, 22.0 nm (40.7 km) W. Retrieved 2022/05/20 06:24 UTC (1 hour ago):

TAF KSOA 200522Z 2006/2106 17013G21KT P6SM SKC FM201200 18010KT P6SM SCT050